Airfield :
LOGIN :

Register | Disclaimer

   EN    FR    IT 

 










Legend :    VFR   Marginal VFR   IFR   Intensive IFR   Very Intensive IFR
Visi :
Ceiling :
>= 8 km
>= 3000ft
5 to 8 km
1000 to 3000 ft
1500m to 5 km
500 to 1000 ft
800 to 1500m
200 to 500 ft
< 800m
< 200 ft
Symbols :   Thunderstorms  Fog  Heavy snow  Heavy precipitations  Wind > 20 kt
SIGMETs :     Misc.  Thunderstorms  Icing  Turbulence  Mountain Waves  Volcanic Ashes







- Airport Elevation : 290 ft
- IATA code : LAI
- Download approach charts


LFRO - Lannion

CURRENT METAR :
  • 200900Z AUTO 26013KT 9999 BKN014 BKN030 BKN074 15/11 Q1017

EXPIRED METARs :
  • 200830Z AUTO 26012KT 9999 BKN012 BKN024 BKN058 14/12 Q1016
  • 200800Z AUTO 25008KT 9999 BKN012 BKN022 OVC074 14/12 Q1016
  • 200730Z AUTO 25009KT 9999 BKN012 BKN017 BKN022 14/12 Q1016
  • 200700Z AUTO 24007KT 9999 SCT012 BKN018 BKN074 14/12 Q1016
  • 200630Z AUTO 24007KT 9999 FEW011 SCT018 13/11 Q1016

Expired Forecast.
No reported NOTAMs for that airfield.



MET'MAP, your aeronautical weather chart ! - Copyright ORBIFLY December 2007 - Disclaimer

ORBIFLY MET'MAP TEAM :

Programming & Development : Alexandra Zaïnal
Concept & Development : Baudouin d'Aumeries
Co-Development & Prog : Marc-Olivier Méhu
Technical & hardware support : Manuel Goepfert

Contact : metmap@orbifly.com




SOURCES & CREDITS :

   NOAA